sensor_id;sensor_type;location;lat;lon;timestamp;pressure;altitude;pressure_sealevel;temperature;humidity
50310;BME280;36207;51.850;21.698;2023-02-18T00:01:21;98785.52;;;7.84;83.15
50310;BME280;36207;51.850;21.698;2023-02-18T00:03:48;98788.91;;;7.83;84.59
50310;BME280;36207;51.850;21.698;2023-02-18T00:06:17;98793.61;;;7.84;85.45
50310;BME280;36207;51.850;21.698;2023-02-18T00:08:44;98788.70;;;7.82;84.75
50310;BME280;36207;51.850;21.698;2023-02-18T00:11:11;98799.88;;;7.81;85.10
50310;BME280;36207;51.850;21.698;2023-02-18T00:13:37;98802.26;;;7.77;84.84
50310;BME280;36207;51.850;21.698;2023-02-18T00:16:06;98807.13;;;7.76;84.28
50310;BME280;36207;51.850;21.698;2023-02-18T00:18:33;98809.82;;;7.76;84.29
50310;BME280;36207;51.850;21.698;2023-02-18T00:20:59;98819.66;;;7.75;85.43
50310;BME280;36207;51.850;21.698;2023-02-18T00:23:25;98834.56;;;7.74;86.20
50310;BME280;36207;51.850;21.698;2023-02-18T00:26:12;98835.45;;;7.68;82.34
50310;BME280;36207;51.850;21.698;2023-02-18T00:28:40;98842.76;;;7.59;78.75
50310;BME280;36207;51.850;21.698;2023-02-18T00:31:17;98853.95;;;7.58;79.00
50310;BME280;36207;51.850;21.698;2023-02-18T00:33:43;98852.52;;;7.50;76.30
50310;BME280;36207;51.850;21.698;2023-02-18T00:36:12;98851.63;;;7.47;77.24
50310;BME280;36207;51.850;21.698;2023-02-18T00:38:38;98837.69;;;7.40;74.42
50310;BME280;36207;51.850;21.698;2023-02-18T00:41:05;98845.16;;;7.25;71.65
50310;BME280;36207;51.850;21.698;2023-02-18T00:43:31;98845.81;;;7.18;74.15
50310;BME280;36207;51.850;21.698;2023-02-18T00:45:57;98856.41;;;7.09;73.54
50310;BME280;36207;51.850;21.698;2023-02-18T00:48:22;98859.20;;;7.01;73.52
50310;BME280;36207;51.850;21.698;2023-02-18T00:50:48;98865.85;;;6.94;73.40
50310;BME280;36207;51.850;21.698;2023-02-18T00:53:14;98866.33;;;6.84;72.49
50310;BME280;36207;51.850;21.698;2023-02-18T00:55:42;98871.84;;;6.78;73.02
50310;BME280;36207;51.850;21.698;2023-02-18T00:58:09;98876.00;;;6.70;71.92
50310;BME280;36207;51.850;21.698;2023-02-18T01:00:35;98877.66;;;6.66;71.81
50310;BME280;36207;51.850;21.698;2023-02-18T01:03:01;98878.79;;;6.62;73.06
50310;BME280;36207;51.850;21.698;2023-02-18T01:05:27;98878.89;;;6.57;73.44
50310;BME280;36207;51.850;21.698;2023-02-18T01:07:53;98879.80;;;6.51;72.65
50310;BME280;36207;51.850;21.698;2023-02-18T01:10:19;98884.52;;;6.47;72.78
50310;BME280;36207;51.850;21.698;2023-02-18T01:12:45;98880.81;;;6.43;71.70
50310;BME280;36207;51.850;21.698;2023-02-18T01:15:14;98888.46;;;6.41;71.76
50310;BME280;36207;51.850;21.698;2023-02-18T01:17:40;98891.60;;;6.41;72.44
50310;BME280;36207;51.850;21.698;2023-02-18T01:20:08;98897.13;;;6.39;71.57
50310;BME280;36207;51.850;21.698;2023-02-18T01:22:34;98900.95;;;6.37;70.61
50310;BME280;36207;51.850;21.698;2023-02-18T01:25:00;98897.34;;;6.33;69.36
50310;BME280;36207;51.850;21.698;2023-02-18T01:27:26;98894.05;;;6.31;68.34
50310;BME280;36207;51.850;21.698;2023-02-18T01:29:55;98898.60;;;6.34;70.20
50310;BME280;36207;51.850;21.698;2023-02-18T01:32:21;98895.50;;;6.35;70.78
50310;BME280;36207;51.850;21.698;2023-02-18T01:34:47;98895.94;;;6.31;69.78
50310;BME280;36207;51.850;21.698;2023-02-18T01:37:13;98896.89;;;6.29;69.88
50310;BME280;36207;51.850;21.698;2023-02-18T01:39:39;98891.59;;;6.28;69.43
50310;BME280;36207;51.850;21.698;2023-02-18T01:42:05;98892.69;;;6.27;69.02
50310;BME280;36207;51.850;21.698;2023-02-18T01:44:32;98900.63;;;6.29;70.00
50310;BME280;36207;51.850;21.698;2023-02-18T01:46:59;98901.23;;;6.28;68.74
50310;BME280;36207;51.850;21.698;2023-02-18T01:49:28;98902.59;;;6.29;68.58
50310;BME280;36207;51.850;21.698;2023-02-18T01:52:11;98904.06;;;6.30;69.12
50310;BME280;36207;51.850;21.698;2023-02-18T01:54:44;98902.34;;;6.29;69.24
50310;BME280;36207;51.850;21.698;2023-02-18T01:57:34;98900.26;;;6.29;69.77
50310;BME280;36207;51.850;21.698;2023-02-18T02:00:06;98899.92;;;6.26;69.00
50310;BME280;36207;51.850;21.698;2023-02-18T02:02:36;98902.71;;;6.24;68.81
50310;BME280;36207;51.850;21.698;2023-02-18T02:05:04;98894.05;;;6.21;67.88
50310;BME280;36207;51.850;21.698;2023-02-18T02:07:31;98902.98;;;6.24;69.55
50310;BME280;36207;51.850;21.698;2023-02-18T02:09:57;98904.09;;;6.26;68.73
50310;BME280;36207;51.850;21.698;2023-02-18T02:12:53;98908.95;;;6.27;69.05
50310;BME280;36207;51.850;21.698;2023-02-18T02:15:36;98910.18;;;6.27;69.12
50310;BME280;36207;51.850;21.698;2023-02-18T02:18:30;98901.30;;;6.26;68.81
50310;BME280;36207;51.850;21.698;2023-02-18T02:21:08;98903.84;;;6.24;67.70
50310;BME280;36207;51.850;21.698;2023-02-18T02:38:16;98907.13;;;6.18;67.08
50310;BME280;36207;51.850;21.698;2023-02-18T02:41:20;98908.39;;;6.18;67.82
50310;BME280;36207;51.850;21.698;2023-02-18T02:44:05;98909.23;;;6.17;67.79
50310;BME280;36207;51.850;21.698;2023-02-18T02:46:38;98913.33;;;6.15;67.78
50310;BME280;36207;51.850;21.698;2023-02-18T02:49:18;98910.42;;;6.13;67.21
50310;BME280;36207;51.850;21.698;2023-02-18T02:54:21;98907.27;;;6.10;66.42
50310;BME280;36207;51.850;21.698;2023-02-18T02:56:47;98912.60;;;6.07;66.30
50310;BME280;36207;51.850;21.698;2023-02-18T02:59:21;98914.68;;;6.07;67.10
50310;BME280;36207;51.850;21.698;2023-02-18T03:05:09;98913.77;;;6.01;66.25
50310;BME280;36207;51.850;21.698;2023-02-18T03:08:21;98911.98;;;6.01;66.71
50310;BME280;36207;51.850;21.698;2023-02-18T03:10:56;98910.73;;;5.98;65.12
50310;BME280;36207;51.850;21.698;2023-02-18T03:13:33;98914.48;;;5.98;65.67
50310;BME280;36207;51.850;21.698;2023-02-18T03:16:25;98914.16;;;5.97;65.67
50310;BME280;36207;51.850;21.698;2023-02-18T03:19:00;98919.83;;;5.97;65.07
50310;BME280;36207;51.850;21.698;2023-02-18T03:24:01;98929.52;;;5.97;65.95
50310;BME280;36207;51.850;21.698;2023-02-18T03:26:30;98931.27;;;5.95;65.04
50310;BME280;36207;51.850;21.698;2023-02-18T03:29:00;98935.55;;;5.94;65.63
50310;BME280;36207;51.850;21.698;2023-02-18T03:31:28;98935.83;;;5.93;65.77
50310;BME280;36207;51.850;21.698;2023-02-18T03:34:18;98934.68;;;5.89;65.22
50310;BME280;36207;51.850;21.698;2023-02-18T03:36:46;98938.15;;;5.90;66.34
50310;BME280;36207;51.850;21.698;2023-02-18T03:39:18;98941.77;;;5.87;66.51
50310;BME280;36207;51.850;21.698;2023-02-18T03:41:44;98944.50;;;5.85;66.49
50310;BME280;36207;51.850;21.698;2023-02-18T03:44:11;98946.89;;;5.84;66.21
50310;BME280;36207;51.850;21.698;2023-02-18T03:46:40;98946.62;;;5.82;65.97
50310;BME280;36207;51.850;21.698;2023-02-18T03:49:09;98948.09;;;5.80;66.01
50310;BME280;36207;51.850;21.698;2023-02-18T03:51:35;98953.86;;;5.77;65.36
50310;BME280;36207;51.850;21.698;2023-02-18T03:54:01;98951.33;;;5.76;66.07
50310;BME280;36207;51.850;21.698;2023-02-18T03:56:27;98949.77;;;5.73;65.20
50310;BME280;36207;51.850;21.698;2023-02-18T03:58:53;98951.36;;;5.70;65.39
50310;BME280;36207;51.850;21.698;2023-02-18T04:01:19;98954.30;;;5.69;65.94
50310;BME280;36207;51.850;21.698;2023-02-18T04:03:45;98957.58;;;5.68;65.95
50310;BME280;36207;51.850;21.698;2023-02-18T04:06:11;98957.23;;;5.65;65.99
50310;BME280;36207;51.850;21.698;2023-02-18T04:08:37;98950.45;;;5.62;66.00
50310;BME280;36207;51.850;21.698;2023-02-18T04:11:03;98960.30;;;5.61;65.86
50310;BME280;36207;51.850;21.698;2023-02-18T04:13:30;98953.21;;;5.59;65.08
50310;BME280;36207;51.850;21.698;2023-02-18T04:15:56;98963.20;;;5.62;65.95
50310;BME280;36207;51.850;21.698;2023-02-18T04:18:22;98961.93;;;5.61;65.59
50310;BME280;36207;51.850;21.698;2023-02-18T04:20:48;98962.07;;;5.59;65.34
50310;BME280;36207;51.850;21.698;2023-02-18T04:23:14;98962.08;;;5.58;65.62
50310;BME280;36207;51.850;21.698;2023-02-18T04:25:40;98961.38;;;5.56;65.47
50310;BME280;36207;51.850;21.698;2023-02-18T04:28:06;98964.95;;;5.56;65.88
50310;BME280;36207;51.850;21.698;2023-02-18T04:30:32;98968.33;;;5.53;65.82
50310;BME280;36207;51.850;21.698;2023-02-18T04:32:58;98965.54;;;5.51;65.49
50310;BME280;36207;51.850;21.698;2023-02-18T04:35:24;98961.90;;;5.50;66.27
50310;BME280;36207;51.850;21.698;2023-02-18T04:37:50;98956.79;;;5.47;65.58
50310;BME280;36207;51.850;21.698;2023-02-18T04:40:15;98961.92;;;5.47;65.79
50310;BME280;36207;51.850;21.698;2023-02-18T04:42:41;98961.09;;;5.46;65.37
50310;BME280;36207;51.850;21.698;2023-02-18T04:45:08;98969.00;;;5.47;66.23
50310;BME280;36207;51.850;21.698;2023-02-18T04:47:34;98965.02;;;5.44;65.62
50310;BME280;36207;51.850;21.698;2023-02-18T04:50:00;98968.46;;;5.42;65.81
50310;BME280;36207;51.850;21.698;2023-02-18T04:52:26;98969.55;;;5.40;65.66
50310;BME280;36207;51.850;21.698;2023-02-18T04:54:51;98968.12;;;5.37;64.83
50310;BME280;36207;51.850;21.698;2023-02-18T04:57:17;98973.35;;;5.36;65.92
50310;BME280;36207;51.850;21.698;2023-02-18T04:59:43;98971.38;;;5.33;65.28
50310;BME280;36207;51.850;21.698;2023-02-18T05:02:09;98970.67;;;5.31;64.90
50310;BME280;36207;51.850;21.698;2023-02-18T05:04:35;98965.69;;;5.30;65.26
50310;BME280;36207;51.850;21.698;2023-02-18T05:07:01;98965.94;;;5.28;65.25
50310;BME280;36207;51.850;21.698;2023-02-18T05:09:27;98973.67;;;5.27;65.46
50310;BME280;36207;51.850;21.698;2023-02-18T05:11:52;98973.72;;;5.25;65.30
50310;BME280;36207;51.850;21.698;2023-02-18T05:14:19;98977.95;;;5.25;65.82
50310;BME280;36207;51.850;21.698;2023-02-18T05:16:45;98978.23;;;5.24;65.57
50310;BME280;36207;51.850;21.698;2023-02-18T05:19:15;98976.77;;;5.23;65.44
50310;BME280;36207;51.850;21.698;2023-02-18T05:21:41;98981.53;;;5.23;65.66
50310;BME280;36207;51.850;21.698;2023-02-18T05:24:08;98981.44;;;5.22;66.09
50310;BME280;36207;51.850;21.698;2023-02-18T05:26:34;98989.81;;;5.20;66.14
50310;BME280;36207;51.850;21.698;2023-02-18T05:29:00;98996.69;;;5.18;66.49
50310;BME280;36207;51.850;21.698;2023-02-18T05:31:26;98991.70;;;5.15;66.16
50310;BME280;36207;51.850;21.698;2023-02-18T05:33:52;98990.98;;;5.14;66.24
50310;BME280;36207;51.850;21.698;2023-02-18T05:36:18;98993.43;;;5.12;65.68
50310;BME280;36207;51.850;21.698;2023-02-18T05:38:44;98997.03;;;5.13;66.44
50310;BME280;36207;51.850;21.698;2023-02-18T05:41:09;99000.95;;;5.13;66.32
50310;BME280;36207;51.850;21.698;2023-02-18T05:43:36;99002.98;;;5.12;66.88
50310;BME280;36207;51.850;21.698;2023-02-18T05:46:22;99001.51;;;5.09;66.39
50310;BME280;36207;51.850;21.698;2023-02-18T05:48:48;99005.98;;;5.09;66.68
50310;BME280;36207;51.850;21.698;2023-02-18T05:51:14;99009.45;;;5.06;66.89
50310;BME280;36207;51.850;21.698;2023-02-18T05:53:40;99015.38;;;5.05;67.35
50310;BME280;36207;51.850;21.698;2023-02-18T05:56:06;99015.91;;;5.04;67.20
50310;BME280;36207;51.850;21.698;2023-02-18T05:58:32;99021.20;;;5.04;67.20
50310;BME280;36207;51.850;21.698;2023-02-18T06:00:58;99016.30;;;5.03;67.59
50310;BME280;36207;51.850;21.698;2023-02-18T06:03:24;99022.98;;;5.03;67.99
50310;BME280;36207;51.850;21.698;2023-02-18T06:05:52;99032.35;;;5.03;68.20
50310;BME280;36207;51.850;21.698;2023-02-18T06:08:18;99031.08;;;4.99;67.88
50310;BME280;36207;51.850;21.698;2023-02-18T06:10:47;99026.97;;;4.98;68.43
50310;BME280;36207;51.850;21.698;2023-02-18T06:13:13;99032.92;;;4.97;68.78
50310;BME280;36207;51.850;21.698;2023-02-18T06:15:40;99036.52;;;4.96;68.23
50310;BME280;36207;51.850;21.698;2023-02-18T06:18:06;99035.93;;;4.97;68.08
50310;BME280;36207;51.850;21.698;2023-02-18T06:20:32;99038.05;;;4.97;67.89
50310;BME280;36207;51.850;21.698;2023-02-18T06:22:58;99041.42;;;4.97;67.85
50310;BME280;36207;51.850;21.698;2023-02-18T06:25:24;99034.28;;;4.96;67.75
50310;BME280;36207;51.850;21.698;2023-02-18T06:27:51;99042.11;;;4.95;68.14
50310;BME280;36207;51.850;21.698;2023-02-18T06:30:17;99045.15;;;4.94;68.39
50310;BME280;36207;51.850;21.698;2023-02-18T06:32:43;99048.20;;;4.96;68.28
50310;BME280;36207;51.850;21.698;2023-02-18T06:35:09;99047.23;;;4.95;67.47
50310;BME280;36207;51.850;21.698;2023-02-18T06:37:35;99046.95;;;4.96;67.47
50310;BME280;36207;51.850;21.698;2023-02-18T06:40:02;99040.73;;;4.96;67.89
50310;BME280;36207;51.850;21.698;2023-02-18T06:42:28;99044.70;;;4.95;68.03
50310;BME280;36207;51.850;21.698;2023-02-18T06:44:54;99042.02;;;4.96;67.91
50310;BME280;36207;51.850;21.698;2023-02-18T06:47:20;99054.58;;;4.95;67.94
50310;BME280;36207;51.850;21.698;2023-02-18T06:49:46;99057.66;;;4.95;68.46
50310;BME280;36207;51.850;21.698;2023-02-18T06:52:13;99059.82;;;4.94;68.53
50310;BME280;36207;51.850;21.698;2023-02-18T06:54:39;99063.48;;;4.95;68.57
50310;BME280;36207;51.850;21.698;2023-02-18T06:57:04;99061.73;;;4.94;67.99
50310;BME280;36207;51.850;21.698;2023-02-18T06:59:30;99057.26;;;4.95;68.15
50310;BME280;36207;51.850;21.698;2023-02-18T07:01:56;99068.37;;;4.95;67.90
50310;BME280;36207;51.850;21.698;2023-02-18T07:04:22;99062.46;;;4.94;67.25
50310;BME280;36207;51.850;21.698;2023-02-18T07:06:48;99068.48;;;4.94;67.26
50310;BME280;36207;51.850;21.698;2023-02-18T07:09:14;99076.34;;;4.95;67.94
50310;BME280;36207;51.850;21.698;2023-02-18T07:11:39;99068.17;;;4.95;66.96
50310;BME280;36207;51.850;21.698;2023-02-18T07:14:05;99077.97;;;4.98;67.66
50310;BME280;36207;51.850;21.698;2023-02-18T07:16:31;99065.39;;;5.00;66.63
50310;BME280;36207;51.850;21.698;2023-02-18T07:18:57;99073.30;;;5.02;66.46
50310;BME280;36207;51.850;21.698;2023-02-18T07:21:23;99080.13;;;5.02;66.60
50310;BME280;36207;51.850;21.698;2023-02-18T07:23:49;99078.89;;;5.04;66.72
50310;BME280;36207;51.850;21.698;2023-02-18T07:26:15;99083.61;;;5.05;67.40
50310;BME280;36207;51.850;21.698;2023-02-18T07:28:41;99091.02;;;5.07;67.44
50310;BME280;36207;51.850;21.698;2023-02-18T07:31:07;99092.15;;;5.08;67.87
50310;BME280;36207;51.850;21.698;2023-02-18T07:33:33;99094.55;;;5.09;67.09
50310;BME280;36207;51.850;21.698;2023-02-18T07:36:00;99088.31;;;5.09;66.48
50310;BME280;36207;51.850;21.698;2023-02-18T07:38:27;99087.78;;;5.13;66.53
50310;BME280;36207;51.850;21.698;2023-02-18T07:40:54;99086.71;;;5.16;66.51
50310;BME280;36207;51.850;21.698;2023-02-18T07:43:20;99086.91;;;5.17;66.07
50310;BME280;36207;51.850;21.698;2023-02-18T07:45:47;99083.17;;;5.19;66.19
50310;BME280;36207;51.850;21.698;2023-02-18T07:48:13;99075.07;;;5.21;64.42
50310;BME280;36207;51.850;21.698;2023-02-18T07:50:42;99080.42;;;5.24;64.42
50310;BME280;36207;51.850;21.698;2023-02-18T07:53:10;99079.70;;;5.27;64.40
50310;BME280;36207;51.850;21.698;2023-02-18T07:55:37;99073.77;;;5.29;64.43
50310;BME280;36207;51.850;21.698;2023-02-18T07:58:22;99081.10;;;5.32;64.01
50310;BME280;36207;51.850;21.698;2023-02-18T08:00:50;99082.23;;;5.33;64.91
50310;BME280;36207;51.850;21.698;2023-02-18T08:03:23;99079.52;;;5.37;65.16
50310;BME280;36207;51.850;21.698;2023-02-18T08:05:50;99078.91;;;5.41;64.69
50310;BME280;36207;51.850;21.698;2023-02-18T08:08:19;99073.90;;;5.45;64.03
50310;BME280;36207;51.850;21.698;2023-02-18T08:10:46;99073.29;;;5.52;63.50
50310;BME280;36207;51.850;21.698;2023-02-18T08:13:12;99081.92;;;5.53;62.89
50310;BME280;36207;51.850;21.698;2023-02-18T08:15:39;99080.92;;;5.54;63.19
50310;BME280;36207;51.850;21.698;2023-02-18T08:18:06;99083.64;;;5.55;63.04
50310;BME280;36207;51.850;21.698;2023-02-18T08:20:37;99085.55;;;5.59;62.66
50310;BME280;36207;51.850;21.698;2023-02-18T08:23:03;99087.16;;;5.62;62.64
50310;BME280;36207;51.850;21.698;2023-02-18T08:25:30;99097.30;;;5.69;63.56
50310;BME280;36207;51.850;21.698;2023-02-18T08:27:56;99094.64;;;5.74;62.76
50310;BME280;36207;51.850;21.698;2023-02-18T08:30:22;99104.61;;;5.84;63.20
50310;BME280;36207;51.850;21.698;2023-02-18T08:32:48;99105.33;;;5.89;63.40
50310;BME280;36207;51.850;21.698;2023-02-18T08:35:14;99107.38;;;5.88;63.53
50310;BME280;36207;51.850;21.698;2023-02-18T08:37:40;99111.64;;;5.88;64.46
50310;BME280;36207;51.850;21.698;2023-02-18T08:40:08;99109.96;;;5.84;62.85
50310;BME280;36207;51.850;21.698;2023-02-18T08:42:34;99111.77;;;5.78;62.86
50310;BME280;36207;51.850;21.698;2023-02-18T08:45:00;99108.65;;;5.75;62.68
50310;BME280;36207;51.850;21.698;2023-02-18T08:47:26;99111.50;;;5.77;63.01
50310;BME280;36207;51.850;21.698;2023-02-18T08:49:53;99124.19;;;5.72;62.35
50310;BME280;36207;51.850;21.698;2023-02-18T08:52:19;99120.15;;;5.70;61.73
50310;BME280;36207;51.850;21.698;2023-02-18T08:54:45;99110.02;;;5.69;61.51
50310;BME280;36207;51.850;21.698;2023-02-18T08:57:11;99115.12;;;5.68;60.95
50310;BME280;36207;51.850;21.698;2023-02-18T08:59:37;99116.99;;;5.68;61.81
50310;BME280;36207;51.850;21.698;2023-02-18T09:02:03;99117.36;;;5.71;62.48
50310;BME280;36207;51.850;21.698;2023-02-18T09:04:29;99107.00;;;5.73;61.15
50310;BME280;36207;51.850;21.698;2023-02-18T09:06:55;99112.79;;;5.73;60.91
50310;BME280;36207;51.850;21.698;2023-02-18T09:09:22;99112.96;;;5.74;61.03
50310;BME280;36207;51.850;21.698;2023-02-18T09:11:48;99115.52;;;5.75;62.40
50310;BME280;36207;51.850;21.698;2023-02-18T09:14:14;99117.51;;;5.76;61.76
50310;BME280;36207;51.850;21.698;2023-02-18T09:16:41;99112.80;;;5.71;60.76
50310;BME280;36207;51.850;21.698;2023-02-18T09:19:07;99125.11;;;5.72;62.83
50310;BME280;36207;51.850;21.698;2023-02-18T09:21:33;99126.39;;;5.76;62.50
50310;BME280;36207;51.850;21.698;2023-02-18T09:24:00;99125.86;;;5.77;62.88
50310;BME280;36207;51.850;21.698;2023-02-18T09:26:26;99124.17;;;5.85;62.23
50310;BME280;36207;51.850;21.698;2023-02-18T09:28:55;99119.39;;;5.96;62.89
50310;BME280;36207;51.850;21.698;2023-02-18T09:31:24;99122.05;;;5.98;61.61
50310;BME280;36207;51.850;21.698;2023-02-18T09:33:54;99121.19;;;5.96;62.04
50310;BME280;36207;51.850;21.698;2023-02-18T09:36:20;99129.33;;;5.97;62.91
50310;BME280;36207;51.850;21.698;2023-02-18T09:38:46;99126.68;;;5.97;62.31
50310;BME280;36207;51.850;21.698;2023-02-18T09:41:41;99128.35;;;6.05;62.71
50310;BME280;36207;51.850;21.698;2023-02-18T09:44:24;99122.09;;;6.13;62.37
50310;BME280;36207;51.850;21.698;2023-02-18T09:46:58;99117.85;;;6.19;61.91
50310;BME280;36207;51.850;21.698;2023-02-18T09:49:26;99125.36;;;6.34;61.92
50310;BME280;36207;51.850;21.698;2023-02-18T09:51:54;99121.27;;;6.44;60.62
50310;BME280;36207;51.850;21.698;2023-02-18T09:54:21;99122.35;;;6.47;61.53
50310;BME280;36207;51.850;21.698;2023-02-18T09:56:47;99125.98;;;6.51;62.30
50310;BME280;36207;51.850;21.698;2023-02-18T09:59:19;99120.11;;;6.51;61.01
50310;BME280;36207;51.850;21.698;2023-02-18T10:01:49;99125.20;;;6.45;60.18
50310;BME280;36207;51.850;21.698;2023-02-18T10:04:23;99123.02;;;6.44;59.88
50310;BME280;36207;51.850;21.698;2023-02-18T10:06:52;99129.70;;;6.43;59.36
50310;BME280;36207;51.850;21.698;2023-02-18T10:09:22;99128.09;;;6.40;59.81
50310;BME280;36207;51.850;21.698;2023-02-18T10:12:14;99132.39;;;6.41;59.75
50310;BME280;36207;51.850;21.698;2023-02-18T10:14:42;99133.13;;;6.41;60.02
50310;BME280;36207;51.850;21.698;2023-02-18T10:17:13;99135.36;;;6.43;60.58
50310;BME280;36207;51.850;21.698;2023-02-18T10:19:41;99128.35;;;6.41;60.18
50310;BME280;36207;51.850;21.698;2023-02-18T10:22:10;99126.23;;;6.39;59.59
50310;BME280;36207;51.850;21.698;2023-02-18T10:24:53;99136.77;;;6.43;60.68
50310;BME280;36207;51.850;21.698;2023-02-18T10:27:24;99137.09;;;6.43;60.73
50310;BME280;36207;51.850;21.698;2023-02-18T10:29:51;99129.95;;;6.50;61.06
50310;BME280;36207;51.850;21.698;2023-02-18T10:32:27;99130.19;;;6.57;61.17
50310;BME280;36207;51.850;21.698;2023-02-18T10:34:59;99132.80;;;6.68;61.61
50310;BME280;36207;51.850;21.698;2023-02-18T10:51:12;99126.57;;;6.57;59.50
50310;BME280;36207;51.850;21.698;2023-02-18T10:53:41;99124.63;;;6.48;59.50
50310;BME280;36207;51.850;21.698;2023-02-18T10:59:10;99132.10;;;6.53;60.98
50310;BME280;36207;51.850;21.698;2023-02-18T11:01:36;99129.24;;;6.58;61.09
50310;BME280;36207;51.850;21.698;2023-02-18T11:04:11;99129.23;;;6.59;61.48
50310;BME280;36207;51.850;21.698;2023-02-18T11:09:05;99121.29;;;6.68;61.59
50310;BME280;36207;51.850;21.698;2023-02-18T11:11:38;99109.33;;;6.68;60.58
50310;BME280;36207;51.850;21.698;2023-02-18T11:14:16;99110.82;;;6.67;60.72
50310;BME280;36207;51.850;21.698;2023-02-18T11:16:52;99107.00;;;6.68;60.32
50310;BME280;36207;51.850;21.698;2023-02-18T11:19:35;99105.38;;;6.68;60.43
50310;BME280;36207;51.850;21.698;2023-02-18T11:22:11;99101.24;;;6.70;61.20
50310;BME280;36207;51.850;21.698;2023-02-18T11:24:39;99097.83;;;6.71;61.08
50310;BME280;36207;51.850;21.698;2023-02-18T11:27:09;99106.09;;;6.70;61.47
50310;BME280;36207;51.850;21.698;2023-02-18T11:29:41;99111.23;;;6.68;62.46
50310;BME280;36207;51.850;21.698;2023-02-18T11:32:10;99104.90;;;6.70;62.40
50310;BME280;36207;51.850;21.698;2023-02-18T11:34:41;99099.78;;;6.65;60.79
50310;BME280;36207;51.850;21.698;2023-02-18T11:37:11;99103.56;;;6.57;60.24
50310;BME280;36207;51.850;21.698;2023-02-18T11:39:43;99107.08;;;6.55;60.82
50310;BME280;36207;51.850;21.698;2023-02-18T11:42:13;99108.98;;;6.56;60.63
50310;BME280;36207;51.850;21.698;2023-02-18T11:45:11;99109.86;;;6.51;60.54
50310;BME280;36207;51.850;21.698;2023-02-18T11:47:59;99105.96;;;6.43;61.01
50310;BME280;36207;51.850;21.698;2023-02-18T11:50:30;99096.73;;;6.34;60.42
50310;BME280;36207;51.850;21.698;2023-02-18T11:52:57;99087.39;;;6.28;60.68
50310;BME280;36207;51.850;21.698;2023-02-18T11:55:28;99092.16;;;6.26;61.60
50310;BME280;36207;51.850;21.698;2023-02-18T11:57:57;99085.80;;;6.28;61.95
50310;BME280;36207;51.850;21.698;2023-02-18T12:00:43;99086.58;;;6.31;61.72
50310;BME280;36207;51.850;21.698;2023-02-18T12:04:15;99088.09;;;6.33;61.73
50310;BME280;36207;51.850;21.698;2023-02-18T12:06:22;99091.73;;;6.33;61.20
50310;BME280;36207;51.850;21.698;2023-02-18T12:08:53;99086.27;;;6.32;61.29
50310;BME280;36207;51.850;21.698;2023-02-18T12:11:27;99081.34;;;6.32;61.11
50310;BME280;36207;51.850;21.698;2023-02-18T12:13:57;99085.99;;;6.30;61.51
50310;BME280;36207;51.850;21.698;2023-02-18T12:16:42;99084.36;;;6.30;61.56
50310;BME280;36207;51.850;21.698;2023-02-18T12:27:32;99079.95;;;6.48;62.14
50310;BME280;36207;51.850;21.698;2023-02-18T12:40:46;99077.12;;;6.37;61.96
50310;BME280;36207;51.850;21.698;2023-02-18T13:02:23;99042.60;;;6.67;62.52
50310;BME280;36207;51.850;21.698;2023-02-18T13:13:28;99044.13;;;6.89;60.58
50310;BME280;36207;51.850;21.698;2023-02-18T13:15:59;99048.01;;;6.80;59.81
50310;BME280;36207;51.850;21.698;2023-02-18T13:18:33;99042.98;;;6.77;61.28
50310;BME280;36207;51.850;21.698;2023-02-18T13:21:12;99032.98;;;6.70;60.22
50310;BME280;36207;51.850;21.698;2023-02-18T13:23:47;99038.47;;;6.66;61.25
50310;BME280;36207;51.850;21.698;2023-02-18T13:26:16;99035.46;;;6.64;60.92
50310;BME280;36207;51.850;21.698;2023-02-18T13:28:50;99033.38;;;6.63;61.07
50310;BME280;36207;51.850;21.698;2023-02-18T13:31:43;99037.61;;;6.61;61.35
50310;BME280;36207;51.850;21.698;2023-02-18T13:34:43;99032.17;;;6.59;61.23
50310;BME280;36207;51.850;21.698;2023-02-18T13:39:54;99023.67;;;6.58;60.59
50310;BME280;36207;51.850;21.698;2023-02-18T13:47:42;99019.59;;;6.46;59.90
50310;BME280;36207;51.850;21.698;2023-02-18T13:52:57;99022.01;;;6.35;60.73
50310;BME280;36207;51.850;21.698;2023-02-18T13:55:50;99023.39;;;6.28;60.64
50310;BME280;36207;51.850;21.698;2023-02-18T14:00:54;99023.12;;;6.18;61.27
50310;BME280;36207;51.850;21.698;2023-02-18T14:03:32;99021.67;;;6.15;61.59
50310;BME280;36207;51.850;21.698;2023-02-18T14:06:16;99020.73;;;6.13;61.50
50310;BME280;36207;51.850;21.698;2023-02-18T14:08:42;99021.01;;;6.10;61.58
50310;BME280;36207;51.850;21.698;2023-02-18T14:14:13;99010.26;;;6.08;62.30
50310;BME280;36207;51.850;21.698;2023-02-18T14:19:53;99011.56;;;6.06;62.73
50310;BME280;36207;51.850;21.698;2023-02-18T14:27:27;99001.61;;;6.00;62.61
50310;BME280;36207;51.850;21.698;2023-02-18T14:29:53;99001.05;;;6.01;63.16
50310;BME280;36207;51.850;21.698;2023-02-18T14:32:20;99001.62;;;6.00;63.38
50310;BME280;36207;51.850;21.698;2023-02-18T14:38:05;98996.46;;;5.98;63.50
50310;BME280;36207;51.850;21.698;2023-02-18T14:48:44;98991.02;;;5.93;63.91
50310;BME280;36207;51.850;21.698;2023-02-18T14:51:20;98987.48;;;5.91;63.43
50310;BME280;36207;51.850;21.698;2023-02-18T14:53:48;98982.60;;;5.91;63.46
50310;BME280;36207;51.850;21.698;2023-02-18T14:56:17;98982.02;;;5.90;63.19
50310;BME280;36207;51.850;21.698;2023-02-18T14:58:47;98976.11;;;5.90;63.97
50310;BME280;36207;51.850;21.698;2023-02-18T15:03:50;98961.05;;;5.89;63.83
50310;BME280;36207;51.850;21.698;2023-02-18T15:06:33;98956.58;;;5.88;63.98
50310;BME280;36207;51.850;21.698;2023-02-18T15:09:02;98950.83;;;5.86;63.83
50310;BME280;36207;51.850;21.698;2023-02-18T15:11:40;98944.23;;;5.84;64.06
50310;BME280;36207;51.850;21.698;2023-02-18T15:14:24;98939.82;;;5.82;63.69
50310;BME280;36207;51.850;21.698;2023-02-18T15:16:52;98938.98;;;5.82;63.86
50310;BME280;36207;51.850;21.698;2023-02-18T15:19:21;98936.73;;;5.82;64.42
50310;BME280;36207;51.850;21.698;2023-02-18T15:21:49;98930.24;;;5.81;64.50